createdAt,value
2017-03-17T00:02:02.984Z,55.3
2017-03-17T00:07:03.710Z,55.5
2017-03-17T00:12:03.325Z,55.1
2017-03-17T00:17:03.894Z,55.2
2017-03-17T00:22:03.347Z,55.1
2017-03-17T00:27:03.757Z,55.0
2017-03-17T00:32:03.314Z,55.0
2017-03-17T00:37:03.794Z,55.1
2017-03-17T00:42:03.189Z,55.1
2017-03-17T00:47:03.786Z,55.0
2017-03-17T00:52:03.115Z,55.0
2017-03-17T00:57:03.433Z,55.0
2017-03-17T01:02:03.057Z,54.9
2017-03-17T01:07:03.921Z,54.7
2017-03-17T01:12:03.247Z,54.7
2017-03-17T01:17:04.015Z,54.7
2017-03-17T01:22:03.260Z,54.6
2017-03-17T01:27:03.652Z,54.7
2017-03-17T01:32:03.934Z,54.7
2017-03-17T01:37:03.877Z,54.7
2017-03-17T01:42:03.308Z,54.8
2017-03-17T01:47:04.178Z,54.8
2017-03-17T01:52:03.604Z,54.7
2017-03-17T01:57:03.842Z,54.7
2017-03-17T02:02:03.281Z,54.7
2017-03-17T02:07:03.675Z,54.7
2017-03-17T02:12:03.191Z,54.6
2017-03-17T02:17:03.700Z,54.7
2017-03-17T02:22:03.414Z,54.8
2017-03-17T02:27:03.025Z,54.7
2017-03-17T02:32:03.432Z,54.6
2017-03-17T02:37:03.799Z,54.4
2017-03-17T02:42:03.558Z,54.4
2017-03-17T02:47:03.783Z,54.6
2017-03-17T02:52:03.083Z,54.4
2017-03-17T02:57:03.774Z,54.4
2017-03-17T03:02:03.906Z,55.1
2017-03-17T03:07:03.643Z,54.5
2017-03-17T03:12:03.353Z,54.4
2017-03-17T03:17:03.751Z,54.4
2017-03-17T03:22:03.523Z,54.2
2017-03-17T03:27:03.101Z,54.2
2017-03-17T03:32:03.614Z,54.2
2017-03-17T03:37:03.829Z,54.1
2017-03-17T03:42:04.039Z,54.2
2017-03-17T03:47:03.054Z,54.1
2017-03-17T03:52:03.224Z,53.8
2017-03-17T03:57:03.564Z,53.9
2017-03-17T04:02:03.548Z,53.9
2017-03-17T04:07:03.609Z,53.9
2017-03-17T04:12:03.089Z,53.9
2017-03-17T04:17:03.422Z,53.9
2017-03-17T04:22:03.534Z,54.0
2017-03-17T04:27:03.929Z,54.0
2017-03-17T04:32:03.755Z,54.0
2017-03-17T04:37:03.929Z,54.0
2017-03-17T04:42:03.077Z,54.0
2017-03-17T04:47:03.384Z,53.9
2017-03-17T04:52:03.589Z,53.9
2017-03-17T04:57:03.089Z,53.9
2017-03-17T05:02:14.660Z,53.9
2017-03-17T05:07:03.175Z,53.8
2017-03-17T05:12:03.762Z,53.8
2017-03-17T05:17:26.474Z,53.9
2017-03-17T05:22:03.393Z,53.9
2017-03-17T05:27:03.732Z,53.9
2017-03-17T05:32:28.024Z,53.9
2017-03-17T05:37:03.257Z,53.7
2017-03-17T05:42:03.068Z,53.6
2017-03-17T05:47:23.767Z,53.5
2017-03-17T05:52:03.480Z,53.5
2017-03-17T05:57:03.408Z,53.4
2017-03-17T06:02:23.641Z,53.1
2017-03-17T06:07:03.974Z,53.1
2017-03-17T06:12:03.314Z,53.0
2017-03-17T06:17:28.769Z,52.9
2017-03-17T06:22:03.691Z,52.7
2017-03-17T06:27:03.833Z,52.6
2017-03-17T06:32:27.602Z,52.5
2017-03-17T06:37:03.364Z,52.4
2017-03-17T06:42:03.573Z,52.5
2017-03-17T06:47:24.238Z,52.3
2017-03-17T06:52:03.578Z,52.3
2017-03-17T06:57:03.536Z,52.5
2017-03-17T07:02:28.137Z,52.6
2017-03-17T07:07:03.152Z,52.5
2017-03-17T07:12:03.977Z,52.5
2017-03-17T07:17:23.376Z,52.7
2017-03-17T07:22:03.432Z,52.6
2017-03-17T07:27:03.820Z,52.6
2017-03-17T07:32:24.125Z,52.7
2017-03-17T07:37:03.116Z,53.0
2017-03-17T07:42:03.366Z,53.0
2017-03-17T07:47:26.022Z,53.1
2017-03-17T07:52:03.156Z,53.1
2017-03-17T07:57:03.020Z,53.3
2017-03-17T08:02:28.960Z,53.7
2017-03-17T08:07:03.703Z,53.6
2017-03-17T08:12:03.192Z,53.6
2017-03-17T08:17:28.279Z,53.9
2017-03-17T08:22:03.459Z,54.2
2017-03-17T08:27:03.738Z,54.5
2017-03-17T08:32:23.785Z,55.0
2017-03-17T08:37:03.009Z,55.1
2017-03-17T08:42:03.408Z,55.5
2017-03-17T08:47:28.037Z,55.9
2017-03-17T08:52:03.870Z,56.3
2017-03-17T08:57:03.637Z,56.6
2017-03-17T09:02:23.483Z,56.0
2017-03-17T09:07:03.154Z,55.9
2017-03-17T09:12:03.544Z,56.0
2017-03-17T09:17:24.231Z,56.0
2017-03-17T09:27:03.282Z,56.5
2017-03-17T09:32:23.916Z,56.8
2017-03-17T09:37:03.137Z,56.9
2017-03-17T09:42:03.384Z,57.1
2017-03-17T09:47:24.170Z,57.2
2017-03-17T09:52:03.823Z,57.3
2017-03-17T09:57:03.524Z,57.3
2017-03-17T10:02:23.455Z,57.4
2017-03-17T10:07:03.007Z,57.4
2017-03-17T10:12:03.085Z,57.1
2017-03-17T10:17:27.370Z,57.3
2017-03-17T10:22:03.266Z,57.1
2017-03-17T10:27:03.715Z,56.8
2017-03-17T10:32:24.417Z,55.9
2017-03-17T10:37:03.878Z,55.9
2017-03-17T10:42:03.029Z,56.2
2017-03-17T10:47:28.279Z,56.2
2017-03-17T10:52:03.674Z,56.0
2017-03-17T10:57:02.950Z,56.0
2017-03-17T11:02:03.463Z,55.2
2017-03-17T11:07:03.482Z,55.4
2017-03-17T11:12:03.751Z,55.3
2017-03-17T11:17:22.648Z,54.9
2017-03-17T11:22:03.827Z,55.4
2017-03-17T11:27:04.002Z,55.3
2017-03-17T11:32:23.967Z,55.3
2017-03-17T11:37:03.362Z,55.6
2017-03-17T11:42:03.395Z,56.0
2017-03-17T11:47:24.117Z,56.2
2017-03-17T11:52:03.806Z,56.2
2017-03-17T11:57:03.540Z,56.1
2017-03-17T12:02:21.482Z,56.0
2017-03-17T12:07:03.710Z,55.7
2017-03-17T12:12:03.531Z,55.6
2017-03-17T12:17:29.131Z,55.8
2017-03-17T12:22:03.610Z,55.8
2017-03-17T12:27:03.604Z,55.8
2017-03-17T12:32:20.019Z,55.5
2017-03-17T12:37:03.789Z,55.0
2017-03-17T12:42:03.770Z,54.8
2017-03-17T12:47:28.022Z,54.8
2017-03-17T12:52:03.571Z,55.4
2017-03-17T12:57:03.578Z,55.3
2017-03-17T13:02:23.138Z,55.4
2017-03-17T13:07:03.133Z,56.0
2017-03-17T13:12:04.151Z,56.0
2017-03-17T13:17:24.448Z,55.2
2017-03-17T13:22:03.465Z,55.4
2017-03-17T13:27:03.114Z,55.4
2017-03-17T13:32:23.329Z,55.1
2017-03-17T13:37:04.094Z,53.9
2017-03-17T13:42:03.305Z,53.9
2017-03-17T13:47:23.862Z,52.7
2017-03-17T13:52:03.775Z,52.6
2017-03-17T13:57:03.098Z,53.4
2017-03-17T14:02:23.564Z,53.4
2017-03-17T14:07:03.876Z,53.8
2017-03-17T14:12:03.526Z,52.4
2017-03-17T14:17:26.804Z,52.4
2017-03-17T14:22:03.545Z,51.8
2017-03-17T14:27:03.598Z,51.7
2017-03-17T14:32:23.493Z,52.2
2017-03-17T14:37:03.418Z,52.5
2017-03-17T14:42:03.124Z,53.8
2017-03-17T14:47:28.914Z,54.1
2017-03-17T14:52:03.379Z,51.5
2017-03-17T14:57:03.211Z,51.4
2017-03-17T15:02:23.793Z,49.6
2017-03-17T15:07:03.415Z,47.9
2017-03-17T15:12:03.803Z,47.3
2017-03-17T15:17:23.720Z,47.3
2017-03-17T15:22:03.486Z,49.9
2017-03-17T15:27:03.950Z,49.9
2017-03-17T15:32:23.705Z,51.0
2017-03-17T15:37:03.438Z,50.9
2017-03-17T15:42:03.911Z,52.4
2017-03-17T15:47:21.343Z,53.5
2017-03-17T15:52:03.170Z,54.2
2017-03-17T15:57:03.771Z,54.5
2017-03-17T16:02:23.948Z,55.1
2017-03-17T16:07:03.098Z,55.0
2017-03-17T16:12:03.979Z,55.0
2017-03-17T16:17:27.128Z,54.9
2017-03-17T16:22:03.320Z,55.1
2017-03-17T16:27:03.654Z,55.0
2017-03-17T16:32:24.736Z,55.1
2017-03-17T16:37:03.509Z,55.0
2017-03-17T16:42:03.638Z,54.9
2017-03-17T16:47:27.651Z,54.9
2017-03-17T16:52:03.392Z,55.2
2017-03-17T16:57:03.927Z,55.3
2017-03-17T17:02:23.193Z,55.5
2017-03-17T17:07:03.777Z,55.5
2017-03-17T17:12:03.121Z,55.5
2017-03-17T17:17:25.714Z,55.4
2017-03-17T17:22:03.574Z,55.5
2017-03-17T17:27:03.943Z,55.5
2017-03-17T17:32:23.445Z,55.6
2017-03-17T17:37:03.510Z,55.6
2017-03-17T17:42:03.687Z,55.8
2017-03-17T17:47:24.227Z,55.9
2017-03-17T17:52:03.171Z,55.7
2017-03-17T17:57:03.808Z,55.8
2017-03-17T18:02:15.525Z,55.9
2017-03-17T18:07:03.560Z,55.9
2017-03-17T18:12:03.784Z,56.0
2017-03-17T18:17:04.516Z,55.9
2017-03-17T18:22:03.213Z,56.0
2017-03-17T18:27:03.456Z,56.0
2017-03-17T18:32:03.267Z,56.0
2017-03-17T18:37:03.167Z,55.9
2017-03-17T18:42:03.297Z,55.8
2017-03-17T18:47:04.573Z,55.8
2017-03-17T18:52:03.181Z,55.7
2017-03-17T18:57:03.342Z,55.6
2017-03-17T19:02:03.885Z,55.8
2017-03-17T19:07:03.867Z,55.4
2017-03-17T19:12:03.542Z,55.5
2017-03-17T19:17:04.099Z,55.5
2017-03-17T19:22:03.565Z,55.3
2017-03-17T19:27:03.631Z,55.2
2017-03-17T19:32:04.038Z,55.1
2017-03-17T19:37:03.011Z,55.1
2017-03-17T19:42:03.153Z,55.0
2017-03-17T19:47:03.528Z,54.9
2017-03-17T19:52:03.093Z,54.9
2017-03-17T19:57:03.339Z,54.9
2017-03-17T20:02:03.187Z,55.0
2017-03-17T20:07:03.842Z,55.0
2017-03-17T20:12:03.123Z,55.0
2017-03-17T20:17:03.546Z,54.9
2017-03-17T20:22:03.582Z,54.8
2017-03-17T20:27:03.211Z,54.7
2017-03-17T20:32:03.347Z,54.8
2017-03-17T20:37:03.308Z,54.8
2017-03-17T20:42:03.631Z,54.8
2017-03-17T20:47:03.766Z,54.7
2017-03-17T20:52:03.262Z,54.7
2017-03-17T20:57:02.949Z,54.8
2017-03-17T21:02:03.851Z,54.7
2017-03-17T21:07:03.234Z,54.7
2017-03-17T21:12:03.720Z,54.6
2017-03-17T21:17:03.498Z,54.8
2017-03-17T21:22:03.202Z,54.9
2017-03-17T21:27:03.165Z,54.9
2017-03-17T21:32:03.353Z,54.8
2017-03-17T21:37:03.257Z,54.8
2017-03-17T21:42:03.502Z,54.8
2017-03-17T21:47:03.983Z,54.8
2017-03-17T21:52:03.128Z,54.6
2017-03-17T21:57:03.035Z,54.7
2017-03-17T22:02:03.068Z,54.6
2017-03-17T22:07:03.531Z,54.8
2017-03-17T22:12:03.381Z,54.8
2017-03-17T22:17:04.005Z,54.8
2017-03-17T22:22:03.126Z,54.8
2017-03-17T22:27:03.278Z,54.8
2017-03-17T22:32:04.674Z,54.8
2017-03-17T22:37:04.177Z,54.8
2017-03-17T22:42:03.246Z,54.8
2017-03-17T22:47:03.179Z,54.8
2017-03-17T22:52:03.890Z,54.8
2017-03-17T22:57:03.291Z,54.8
2017-03-17T23:02:03.789Z,54.8
2017-03-17T23:07:05.051Z,55.0
2017-03-17T23:12:03.200Z,54.9
2017-03-17T23:22:03.756Z,54.6
2017-03-17T23:27:03.356Z,54.9
2017-03-17T23:32:03.370Z,55.0
2017-03-17T23:37:03.718Z,55.1
2017-03-17T23:42:03.747Z,55.1
2017-03-17T23:47:03.823Z,55.1
2017-03-17T23:52:03.342Z,55.0
2017-03-17T23:57:03.388Z,54.9
